Nearby METAR Reports

 

KEDC - Austin Exec, Texas, USA
Distance from station: SSE 10mi, 17km
Updated: Thu, 18-Jul-2019 7:55am CDT
Mist, Partly cloudy
Mist, Partly cloudy
 Wind from SSW
Wind: SSW 12 mph , 19 km/h, Gust: 17 mph , 28 km/h
Temperature: 77°F , 25°C
Dew Point: 75°F , 24°C
Humidity: 94%
Barometer: 30.04 inHg , 1017.3 hPa
Summary: Mist
Clouds: Partly cloudy
Visibility: 6 miles , 10 km
Cloud details: Partly cloudy 900 ft
Partly cloudy 1300 ft
Partly cloudy 2000 ft
2019/07/18 12:55 KEDC 181255Z AUTO 20010G15KT 6SM BR SCT009 SCT013 SCT020 25/24 A3004 RMK AO2
KGTU - Georgetown, Texas, USA
Distance from station: NNW 11mi, 17km
Updated: Thu, 18-Jul-2019 7:56am CDT
Overcast
Overcast
 Wind from SSW
Wind: SSW 12 mph , 19 km/h
Temperature: 81°F , 27°C
Heat Index: 86°F , 30°C
Dew Point: 73°F , 23°C
Humidity: 79%
Barometer: 30.06 inHg , 1017.9 hPa
Clouds: Overcast
Visibility: 10 miles , 16 km
Cloud details: Mostly cloudy 1500 ft
Overcast 2000 ft
2019/07/18 12:56 KGTU 181256Z 20010KT 10SM BKN015 OVC020 27/23 A3006 RMK AO2 SLP169 T02670228
 
KATT - Austin/Mabry, Texas, USA
Distance from station: SSW 18mi, 30km
Updated: Thu, 18-Jul-2019 7:51am CDT
Clear
Clear
 Wind from varies
Wind: varies 3 mph , 6 km/h
Temperature: 79°F , 26°C
Dew Point: 73°F , 23°C
Humidity: 84%
Barometer: 30.04 inHg , 1017.3 hPa
Clouds: Clear
Visibility: 10 miles , 16 km
2019/07/18 12:51 KATT 181251Z AUTO VRB03KT 10SM CLR 26/23 A3004 RMK AO2 SLP158 T02610228
KRYW - Lago Vista, Texas, USA
Distance from station: W 22mi, 35km
Updated: Thu, 18-Jul-2019 7:55am CDT
Overcast
Overcast
 Wind from S
Wind: S 6 mph , 9 km/h
Temperature: 75°F , 24°C
Dew Point: 73°F , 23°C
Humidity: 94%
Barometer: 30.07 inHg , 1018.3 hPa
Clouds: Overcast
Visibility: 10 miles , 16 km
Cloud details: Overcast 1100 ft
2019/07/18 12:55 KRYW 181255Z AUTO 18005KT 10SM OVC011 24/23 A3007 RMK AO2 T02410225
 
KAUS - Austin, Texas, USA
Distance from station: S 25mi, 41km
Updated: Thu, 18-Jul-2019 7:53am CDT
Partly cloudy
Partly cloudy
 Wind from S
Wind: S 8 mph , 13 km/h
Temperature: 79°F , 26°C
Dew Point: 75°F , 24°C
Humidity: 89%
Barometer: 30.03 inHg , 1016.9 hPa
Clouds: Partly cloudy
Visibility: 9 miles , 14 km
Cloud details: Partly cloudy 1400 ft
2019/07/18 12:53 KAUS 181253Z 18007KT 9SM SCT014 26/24 A3003 RMK AO2 SLP156 SCT010 V BKN T02610244
KILE - Killeen Muni, Texas, USA
Distance from station: N 36mi, 58km
Updated: Thu, 18-Jul-2019 7:56am CDT
Clear
Clear
 
Temperature: 77°F , 25°C
Dew Point: 73°F , 23°C
Humidity: 89%
Barometer: 30.04 inHg , 1017.3 hPa
Clouds: Clear
Visibility: 10 miles , 16 km
2019/07/18 12:56 KILE 181256Z AUTO 10SM CLR 25/23 A3004 RMK AO2 SLP157 T02500228 $
 
KGRK - Gray/Ft Hood, Texas, USA
Distance from station: NNW 38mi, 62km
Updated: Thu, 18-Jul-2019 7:58am CDT
Clear
Clear
 Wind from S
Wind: S 10 mph , 17 km/h
Temperature: 75°F , 24°C
Dew Point: 72°F , 22°C
Humidity: 89%
Barometer: 30.03 inHg , 1016.9 hPa
Clouds: Clear
Visibility: 10 miles , 16 km
2019/07/18 12:58 KGRK 181258Z AUTO 18009KT 10SM CLR 24/22 A3003 RMK AO2 SLP158 T02440220
KBMQ - Burnet, Texas, USA
Distance from station: WNW 39mi, 64km
Updated: Thu, 18-Jul-2019 7:53am CDT
Overcast
Overcast
 Wind from S
Wind: S 8 mph , 13 km/h
Temperature: 75°F , 24°C
Dew Point: 72°F , 22°C
Humidity: 89%
Barometer: 30.07 inHg , 1018.3 hPa
Clouds: Overcast
Visibility: 10 miles , 16 km
Cloud details: Overcast 1500 ft
2019/07/18 12:53 KBMQ 181253Z AUTO 18007KT 10SM OVC015 24/22 A3007 RMK AO2 SLP163 T02440217
 
KHLR - Ft Hood/Killeen, Texas, USA
Distance from station: N 41mi, 66km
Updated: Thu, 18-Jul-2019 7:58am CDT
Clear
Clear
 Wind from S
Wind: S 12 mph , 19 km/h
Temperature: 77°F , 25°C
Dew Point: 72°F , 22°C
Humidity: 83%
Barometer: 30.00 inHg , 1015.9 hPa
Clouds: Clear
Visibility: 10 miles , 16 km
2019/07/18 12:58 KHLR 181258Z AUTO 19010KT 10SM CLR 25/22 A3000 RMK AO2 SLP146 T02520221
KTPL - Temple/Miller, Texas, USA
Distance from station: NNE 42mi, 68km
Updated: Thu, 18-Jul-2019 7:51am CDT
Overcast
Overcast
 Wind from S
Wind: S 13 mph , 20 km/h
Temperature: 79°F , 26°C
Dew Point: 77°F , 25°C
Humidity: 94%
Barometer: 30.03 inHg , 1016.9 hPa
Clouds: Overcast
Visibility: 10 miles , 16 km
Cloud details: Overcast 1000 ft
2019/07/18 12:51 KTPL 181251Z AUTO 18011KT 10SM OVC010 26/25 A3003 RMK AO2 SLP170 T02560250
 
KT35 - Cameron, Texas, USA
Distance from station: ENE 45mi, 72km
Updated: Thu, 18-Jul-2019 7:55am CDT
Mostly cloudy
Mostly cloudy
 Wind from S
Wind: S 10 mph , 17 km/h, Gust: 17 mph , 28 km/h
Temperature: 79°F , 26°C
Dew Point: 75°F , 24°C
Humidity: 89%
Barometer: 30.03 inHg , 1016.9 hPa
Clouds: Mostly cloudy
Visibility: 10 miles , 16 km
Cloud details: Mostly cloudy 700 ft
2019/07/18 12:55 KT35 181255Z AUTO 19009G15KT 10SM BKN007 26/24 A3003 RMK AO2 T02580241
KDZB - Horseshoe Bay, Texas, USA
Distance from station: W 45mi, 73km
Updated: Thu, 18-Jul-2019 7:57am CDT
Partly cloudy
Partly cloudy
 Wind from S
Wind: S 7 mph , 11 km/h
Temperature: 77°F , 25°C
Dew Point: 72°F , 22°C
Humidity: 83%
Barometer: 30.06 inHg , 1017.9 hPa
Clouds: Partly cloudy
Visibility: 10 miles , 16 km
Cloud details: Partly cloudy 1700 ft
2019/07/18 12:57 KDZB 181257Z AUTO 19006KT 10SM SCT017 25/22 A3006 RMK AO2
 
KGYB - Giddings-Lee, Texas, USA
Distance from station: SE 45mi, 73km
Updated: Thu, 18-Jul-2019 7:55am CDT
Partly cloudy
Partly cloudy
 Wind from S
Wind: S 6 mph , 9 km/h
Temperature: 79°F , 26°C
Dew Point: 79°F , 26°C
Humidity: 100%
Barometer: 30.05 inHg , 1017.6 hPa
Clouds: Partly cloudy
Visibility: 7 miles , 11 km
Cloud details: Partly cloudy 500 ft
2019/07/18 12:55 KGYB 181255Z AUTO 19005KT 7SM SCT005 26/26 A3005 RMK AO2 T02580258
KHYI - San Marcos, Texas, USA
Distance from station: SSW 48mi, 78km
Updated: Thu, 18-Jul-2019 7:56am CDT
Mostly cloudy
Mostly cloudy
 Wind from S
Wind: S 8 mph , 13 km/h
Temperature: 79°F , 26°C
Dew Point: 75°F , 24°C
Humidity: 89%
Barometer: 30.04 inHg , 1017.3 hPa
Clouds: Mostly cloudy
Visibility: 10 miles , 16 km
Cloud details: Mostly cloudy 1300 ft
2019/07/18 12:56 KHYI 181256Z 17007KT 10SM BKN013 26/24 A3004 RMK AO2 SLP162 T02610239
 
KLZZ - Lampasas, Texas, USA
Distance from station: NW 52mi, 84km
Updated: Thu, 18-Jul-2019 7:55am CDT
Clear
Clear
 Wind from SSW
Wind: SSW 9 mph , 15 km/h
Temperature: 77°F , 25°C
Dew Point: 70°F , 21°C
Humidity: 79%
Barometer: 30.03 inHg , 1016.9 hPa
Clouds: Clear
Visibility: 10 miles , 16 km
2019/07/18 12:55 KLZZ 181255Z AUTO 20008KT 10SM CLR 25/21 A3003 RMK AO2 T02460214
KRWV - Caldwell, Texas, USA
Distance from station: E 54mi, 87km
Updated: Thu, 18-Jul-2019 7:55am CDT
Mostly cloudy
Mostly cloudy
 Wind from S
Wind: S 10 mph , 17 km/h
Temperature: 79°F , 26°C
Dew Point: 77°F , 25°C
Humidity: 94%
Barometer: 30.04 inHg , 1017.3 hPa
Clouds: Mostly cloudy
Visibility: 10 miles , 16 km
Cloud details: Mostly cloudy 500 ft
2019/07/18 12:55 KRWV 181255Z AUTO 18009KT 10SM BKN005 26/25 A3004 RMK AO2 T02570247
 
K3T5 - La Grange, Texas, USA
Distance from station: SE 59mi, 95km
Updated: Thu, 18-Jul-2019 7:55am CDT
Clear
Clear
 Wind from calm
Wind: Calm
Temperature: 79°F , 26°C
Dew Point: 79°F , 26°C
Humidity: 100%
Barometer: 30.02 inHg , 1016.6 hPa
Clouds: Clear
Visibility: 7 miles , 11 km
2019/07/18 12:55 K3T5 181255Z AUTO 00000KT 7SM CLR 26/26 A3002 RMK AO2 T02620262
KGOP - Gatesville, Texas, USA
Distance from station: N 61mi, 99km
Updated: Thu, 18-Jul-2019 7:55am CDT
Haze, Clear
Haze, Clear
 Wind from SSE
Wind: SSE 12 mph , 19 km/h, Gust: 18 mph , 30 km/h
Temperature: 77°F , 25°C
Dew Point: 72°F , 22°C
Humidity: 83%
Barometer: 30.04 inHg , 1017.3 hPa
Summary: Haze
Clouds: Clear
Visibility: 6 miles , 10 km
2019/07/18 12:55 KGOP 181255Z AUTO 16010G16KT 6SM HZ CLR 25/22 A3004 RMK AO2
 
KLHB - Hearne Muni, Texas, USA
Distance from station: ENE 63mi, 101km
Updated: Thu, 18-Jul-2019 7:55am CDT
Overcast
Overcast
 Wind from SE
Wind: SE 6 mph , 9 km/h
Temperature: 77°F , 25°C
Dew Point: 77°F , 25°C
Humidity: 100%
Barometer: 30.05 inHg , 1017.6 hPa
Clouds: Overcast
Visibility: 7 miles , 11 km
Cloud details: Overcast 500 ft
2019/07/18 12:55 KLHB 181255Z AUTO 14005KT 7SM OVC005 25/25 A3005 RMK AO2 T02500250
KBAZ - New Braunfels, Texas, USA
Distance from station: SSW 63mi, 102km
Updated: Thu, 18-Jul-2019 7:51am CDT
Mostly cloudy
Mostly cloudy
 Wind from SSE
Wind: SSE 9 mph , 15 km/h
Temperature: 81°F , 27°C
Heat Index: 87°F , 31°C
Dew Point: 75°F , 24°C
Humidity: 84%
Barometer: 30.02 inHg , 1016.6 hPa
Clouds: Mostly cloudy
Visibility: 10 miles , 16 km
Cloud details: Mostly cloudy 1000 ft
Mostly cloudy 1500 ft
2019/07/18 12:51 KBAZ 181251Z 16008KT 10SM BKN010 BKN015 27/24 A3002 RMK AO2 SLP156 T02670239